Time;durP1;ratioP1;P1;durP2;ratioP2;P2;SDS_P1;SDS_P2;PMS_P1;PMS_P2;Temp;Humidity;BMP_temperature;BMP_pressure;BME280_temperature;BME280_humidity;BME280_pressure;Samples;Min_cycle;Max_cycle;Signal;HPM_P1;HPM_P2
2023/06/19 00:01:10;;;;;;;5.30;4.90;;;27.00;37.50;;;29.61;28.16;100979.56;5040747;28;20219;-57
2023/06/19 00:03:37;;;;;;;5.50;5.00;;;27.00;37.20;;;29.59;27.98;100979.06;5055297;28;20282;-57
2023/06/19 00:06:06;;;;;;;5.90;5.20;;;27.00;36.80;;;29.56;27.93;100979.66;5054638;28;20694;-55
2023/06/19 00:08:33;;;;;;;5.40;4.90;;;27.00;36.70;;;29.52;27.95;100985.66;5055443;28;20550;-56
2023/06/19 00:11:00;;;;;;;5.40;4.90;;;27.00;36.60;;;29.52;27.95;100981.34;5055251;28;20633;-58
2023/06/19 00:13:27;;;;;;;4.80;4.40;;;27.00;36.60;;;29.52;28.10;100972.09;5053801;28;20614;-59
2023/06/19 00:16:00;;;;;;;5.33;4.83;;;27.00;36.80;;;29.54;27.89;100973.72;5054870;28;20301;-56
2023/06/19 00:18:27;;;;;;;5.30;4.80;;;27.00;36.70;;;29.56;27.76;100966.09;5055311;28;20174;-56
2023/06/19 00:20:56;;;;;;;5.10;4.70;;;27.00;36.80;;;29.55;27.68;100964.47;5054928;28;20198;-59
2023/06/19 00:23:23;;;;;;;5.33;4.93;;;27.00;36.70;;;29.55;28.34;100959.06;5055020;28;20278;-59
2023/06/19 00:25:50;;;;;;;5.47;5.07;;;27.00;36.80;;;29.56;27.86;100953.31;5054456;28;20329;-58
2023/06/19 00:28:19;;;;;;;4.53;4.23;;;27.00;36.90;;;29.58;27.85;100953.03;5036682;28;20224;-57
2023/06/19 00:30:46;;;;;;;5.27;4.77;;;27.00;36.90;;;29.59;27.98;100954.66;5038808;28;20680;-55
2023/06/19 00:33:15;;;;;;;5.17;4.67;;;27.00;36.90;;;29.59;28.16;100954.66;5054729;28;20190;-57
2023/06/19 00:35:43;;;;;;;5.80;5.30;;;27.00;36.80;;;29.59;28.01;100960.06;5054631;28;20296;-58
2023/06/19 00:38:10;;;;;;;5.07;4.67;;;27.00;36.80;;;29.57;27.78;100962.28;5054797;28;20274;-57
2023/06/19 00:40:37;;;;;;;5.77;5.27;;;27.00;36.90;;;29.57;28.38;100956.84;5049006;28;20273;-58
2023/06/19 00:43:04;;;;;;;5.60;5.20;;;27.00;37.70;;;29.53;28.27;100951.19;5051501;28;20696;-56
2023/06/19 00:45:31;;;;;;;5.57;5.13;;;26.90;37.00;;;29.55;28.29;100954.41;5054821;28;20218;-56
2023/06/19 00:48:00;;;;;;;5.77;5.27;;;26.90;37.10;;;29.47;28.54;100941.53;5054955;28;20186;-55
2023/06/19 00:50:30;;;;;;;5.17;4.77;;;26.90;37.50;;;29.42;28.73;100944.31;5054744;28;20205;-54
2023/06/19 00:52:58;;;;;;;6.47;5.97;;;26.90;37.60;;;29.36;29.25;100943.56;5047769;28;20598;-57
2023/06/19 00:55:29;;;;;;;5.93;5.47;;;26.90;37.90;;;29.31;28.89;100943.66;5036882;28;20711;-54
2023/06/19 00:57:57;;;;;;;6.07;5.47;;;26.80;38.00;;;29.29;29.24;100937.72;5036019;28;20190;-57
2023/06/19 01:00:24;;;;;;;6.10;5.50;;;26.80;38.30;;;29.26;29.34;100930.16;5035293;28;20199;-58
2023/06/19 01:02:52;;;;;;;5.70;5.13;;;26.80;38.50;;;29.24;29.41;100924.22;5053112;28;20265;-54
2023/06/19 01:05:19;;;;;;;6.00;5.40;;;26.80;38.70;;;29.26;29.33;100919.31;5054781;28;20228;-59
2023/06/19 01:08:00;;;;;;;5.73;5.27;;;26.70;38.80;;;29.21;29.43;100911.28;5057335;28;20273;-57
2023/06/19 01:10:33;;;;;;;6.17;5.57;;;26.70;38.80;;;29.24;29.26;100916.09;5056744;28;20178;-54
2023/06/19 01:13:07;;;;;;;5.60;5.10;;;26.70;38.80;;;29.26;29.46;100913.09;5057673;28;20271;-55
2023/06/19 01:15:37;;;;;;;6.43;5.87;;;26.70;38.90;;;29.25;29.71;100922.31;5049576;28;20281;-56
2023/06/19 01:18:05;;;;;;;7.17;5.00;;;26.70;39.00;;;29.24;29.97;100916.09;5039695;28;20361;-55
2023/06/19 01:20:33;;;;;;;6.13;5.63;;;26.60;39.10;;;29.21;29.76;100911.28;5038244;28;20273;-58
2023/06/19 01:23:08;;;;;;;7.03;6.43;;;26.60;39.20;;;29.18;29.87;100902.88;5044997;28;20198;-56
2023/06/19 01:25:35;;;;;;;6.37;5.83;;;26.60;39.20;;;29.18;29.76;100906.44;5058578;28;20253;-58
2023/06/19 01:28:05;;;;;;;6.80;6.30;;;26.60;39.20;;;29.16;30.01;100897.75;5053840;28;20251;-58
2023/06/19 01:30:34;;;;;;;6.23;5.80;;;26.60;39.30;;;29.13;29.84;100913.78;5037708;28;20194;-60
2023/06/19 01:33:10;;;;;;;5.70;5.20;;;26.60;39.30;;;29.10;29.95;100912.47;5033616;28;20567;-58
2023/06/19 01:35:42;;;;;;;6.27;5.77;;;26.60;39.50;;;29.09;30.12;100905.44;5033814;28;20210;-58
2023/06/19 01:38:12;;;;;;;6.10;5.60;;;26.60;40.20;;;29.02;30.04;100910.44;5034003;28;20550;-62
2023/06/19 01:40:41;;;;;;;6.37;5.73;;;26.50;39.60;;;28.96;30.13;100903.44;5040059;28;20690;-55
2023/06/19 01:43:10;;;;;;;6.40;5.90;;;26.50;39.70;;;28.96;30.25;100898.03;5045645;28;20213;-57
2023/06/19 01:45:39;;;;;;;6.63;6.07;;;26.50;39.80;;;28.96;30.27;100905.34;5033746;28;20230;-57
2023/06/19 01:48:07;;;;;;;5.97;5.57;;;26.50;39.80;;;28.95;30.40;100891.00;5032835;28;20198;-55
2023/06/19 01:50:34;;;;;;;6.60;6.00;;;26.50;39.90;;;28.93;30.00;100895.88;5034006;28;20190;-58
2023/06/19 01:53:01;;;;;;;5.90;5.40;;;26.40;39.80;;;28.90;30.23;100882.94;5033278;28;20196;-57
2023/06/19 01:55:29;;;;;;;5.33;4.90;;;26.40;39.80;;;28.89;30.40;100884.03;5033635;28;20214;-57
2023/06/19 01:57:56;;;;;;;6.20;5.73;;;26.40;39.70;;;28.91;29.97;100873.69;5034010;28;20623;-57
2023/06/19 02:00:23;;;;;;;5.83;5.30;;;26.40;39.60;;;28.94;29.98;100872.31;5033728;28;20190;-58
2023/06/19 02:02:51;;;;;;;5.63;5.23;;;26.40;39.60;;;28.95;29.98;100866.59;5053004;28;20247;-59
2023/06/19 02:05:18;;;;;;;5.57;5.17;;;26.40;39.50;;;28.98;29.72;100868.72;5053840;28;20222;-58
2023/06/19 02:07:45;;;;;;;5.47;5.07;;;26.40;39.30;;;28.92;29.80;100860.94;5053136;28;20194;-59
2023/06/19 02:10:12;;;;;;;6.20;5.70;;;26.40;39.20;;;28.89;29.84;100856.09;5052828;28;20221;-59
2023/06/19 02:12:41;;;;;;;6.03;5.60;;;26.40;39.10;;;28.87;29.68;100863.72;5053356;28;20194;-58
2023/06/19 02:15:09;;;;;;;5.97;5.47;;;26.40;39.20;;;28.83;29.86;100868.94;5052589;28;20675;-56
2023/06/19 02:17:36;;;;;;;5.80;5.30;;;26.30;39.20;;;28.77;30.10;100861.97;5053428;28;20248;-58
2023/06/19 02:20:08;;;;;;;6.80;6.13;;;26.30;39.20;;;28.75;29.97;100858.75;5040594;28;20643;-62
2023/06/19 02:22:35;;;;;;;7.17;5.90;;;26.30;39.40;;;28.77;30.18;100848.41;5033362;28;20655;-58
2023/06/19 02:25:03;;;;;;;7.03;6.37;;;26.30;39.50;;;28.73;30.32;100850.09;5034977;28;20253;-59
2023/06/19 02:27:30;;;;;;;5.87;5.43;;;26.30;39.60;;;28.68;30.31;100863.72;5033757;28;20248;-58
2023/06/19 02:29:58;;;;;;;6.47;5.97;;;26.30;39.80;;;28.69;30.24;100862.63;5041245;28;20200;-55
2023/06/19 02:32:26;;;;;;;6.13;5.63;;;26.30;39.90;;;28.65;30.50;100853.47;5057471;28;20216;-59
2023/06/19 02:34:53;;;;;;;6.43;5.93;;;26.20;40.00;;;28.62;30.56;100854.06;5056700;28;20217;-58
2023/06/19 02:37:20;;;;;;;6.30;5.70;;;26.20;40.10;;;28.59;30.71;100855.44;5054709;28;20209;-57
2023/06/19 02:39:47;;;;;;;6.00;5.57;;;26.20;40.30;;;28.57;30.70;100854.09;5037091;28;20224;-59
2023/06/19 02:42:14;;;;;;;6.73;6.10;;;26.10;40.30;;;28.53;30.66;100856.56;5056441;28;20219;-58
2023/06/19 02:44:43;;;;;;;7.23;6.53;;;26.10;40.40;;;28.52;30.93;100854.97;5056645;28;20210;-58
2023/06/19 02:47:11;;;;;;;6.27;5.67;;;26.10;40.50;;;28.48;30.64;100853.91;5056308;28;20284;-58
2023/06/19 02:49:38;;;;;;;6.97;6.43;;;26.00;40.60;;;28.42;31.15;100855.09;5056991;28;20190;-58
2023/06/19 02:52:07;;;;;;;6.20;5.70;;;26.00;40.80;;;28.38;31.00;100855.97;5057292;28;20190;-58
2023/06/19 02:54:34;;;;;;;7.00;6.50;;;26.00;41.50;;;28.29;31.53;100849.56;5056928;28;20940;-57
2023/06/19 02:57:01;;;;;;;6.50;6.00;;;25.90;41.20;;;28.23;31.63;100848.81;5057337;28;20618;-57
2023/06/19 02:59:28;;;;;;;7.43;6.37;;;25.90;41.30;;;28.23;31.98;100840.69;5037018;28;20206;-56
2023/06/19 03:01:55;;;;;;;9.90;6.90;;;25.80;41.40;;;28.19;32.13;100834.25;5048580;28;20665;-59
2023/06/19 03:04:23;;;;;;;7.17;6.50;;;25.80;41.70;;;28.14;31.97;100834.31;5056400;28;20190;-60
2023/06/19 03:06:54;;;;;;;6.20;5.60;;;25.80;41.90;;;28.07;32.16;100837.38;5056525;28;20637;-59
2023/06/19 03:09:21;;;;;;;6.87;6.27;;;25.70;41.90;;;28.06;32.29;100837.63;5056045;28;20348;-58
2023/06/19 03:11:48;;;;;;;7.00;6.40;;;25.70;42.10;;;28.05;32.36;100834.13;5056752;28;20245;-59
2023/06/19 03:14:15;;;;;;;8.23;7.53;;;25.70;42.40;;;28.07;31.88;100845.50;5051433;28;20724;-58
2023/06/19 03:16:42;;;;;;;6.50;5.90;;;25.60;42.30;;;28.11;32.10;100827.56;5036880;28;20234;-60
2023/06/19 03:19:09;;;;;;;6.63;6.00;;;25.60;42.30;;;28.16;31.98;100830.22;5052319;28;20232;-59
2023/06/19 03:21:37;;;;;;;7.13;6.53;;;25.70;42.60;;;28.09;32.49;100835.19;5056572;28;20212;-57
2023/06/19 03:24:04;;;;;;;6.33;5.83;;;25.60;42.70;;;28.06;32.36;100830.34;5056311;28;20210;-58
2023/06/19 03:26:31;;;;;;;7.23;6.73;;;25.60;42.70;;;28.02;32.36;100845.53;5056311;28;20217;-59
2023/06/19 03:28:58;;;;;;;6.97;6.37;;;25.60;42.90;;;27.98;32.49;100844.44;5055383;28;20197;-60
2023/06/19 03:31:25;;;;;;;6.57;6.03;;;25.60;43.00;;;27.98;32.40;100839.03;5056727;28;20647;-60
2023/06/19 03:33:52;;;;;;;7.00;6.37;;;25.50;43.10;;;27.99;32.80;100843.41;5055896;28;20190;-60
2023/06/19 03:36:19;;;;;;;6.40;5.73;;;25.50;43.30;;;27.95;33.13;100847.75;5054904;28;20262;-60
2023/06/19 03:38:48;;;;;;;7.67;6.93;;;25.50;43.30;;;27.93;32.84;100855.34;5042881;28;20239;-61
2023/06/19 03:41:15;;;;;;;7.40;6.20;;;25.50;43.70;;;27.88;33.26;100877.06;5045740;28;20216;-58
2023/06/19 03:43:42;;;;;;;7.50;6.80;;;25.40;43.80;;;27.88;33.50;100881.66;5055769;28;20194;-57
2023/06/19 03:46:09;;;;;;;7.17;6.57;;;25.40;44.00;;;27.85;33.46;100877.63;5054739;28;20236;-60
2023/06/19 03:48:36;;;;;;;7.60;6.90;;;25.40;44.20;;;27.82;33.53;100871.97;5055179;28;20228;-58
2023/06/19 03:51:03;;;;;;;7.00;6.40;;;25.40;44.40;;;27.76;33.26;100868.53;5055705;28;20749;-58
2023/06/19 03:53:30;;;;;;;6.53;6.03;;;25.40;44.50;;;27.74;33.70;100869.91;5055322;28;20283;-60
2023/06/19 03:55:58;;;;;;;7.07;6.47;;;25.30;44.50;;;27.75;33.55;100861.47;5055612;28;20270;-58
2023/06/19 03:58:25;;;;;;;7.57;6.33;;;25.30;44.70;;;27.76;33.56;100852.28;5045926;28;20198;-59
2023/06/19 04:00:52;;;;;;;7.27;6.67;;;25.30;44.90;;;27.73;34.09;100858.25;5038533;28;20226;-58
2023/06/19 04:03:20;;;;;;;6.93;6.43;;;25.30;45.20;;;27.72;33.90;100855.84;5055541;28;20193;-56
2023/06/19 04:05:47;;;;;;;7.20;6.60;;;25.30;45.20;;;27.69;34.62;100861.81;5055413;28;20248;-59
2023/06/19 04:08:14;;;;;;;7.70;6.77;;;25.20;45.60;;;27.65;34.89;100866.19;5053979;28;20186;-59
2023/06/19 04:10:41;;;;;;;7.53;6.93;;;25.20;45.90;;;27.56;34.79;100865.97;5055074;28;20749;-59
2023/06/19 04:13:09;;;;;;;7.87;7.17;;;25.20;46.10;;;27.51;34.82;100866.03;5055336;28;20724;-56
2023/06/19 04:15:37;;;;;;;7.57;6.97;;;25.10;46.40;;;27.44;35.03;100865.53;5055170;28;20256;-56
2023/06/19 04:18:04;;;;;;;7.07;6.47;;;25.10;46.40;;;27.44;35.10;100865.53;5049183;28;20194;-55
2023/06/19 04:20:31;;;;;;;7.20;6.60;;;25.00;46.60;;;27.45;35.06;100869.88;5035038;28;20198;-55
2023/06/19 04:22:58;;;;;;;7.57;6.97;;;25.00;46.60;;;27.43;35.28;100863.94;5034769;28;20199;-57
2023/06/19 04:25:26;;;;;;;7.47;6.77;;;25.00;46.80;;;27.39;35.56;100874.50;5034723;28;20221;-59
2023/06/19 04:27:53;;;;;;;7.90;7.30;;;24.90;46.90;;;27.39;35.22;100873.69;5038316;28;20186;-56
2023/06/19 04:30:21;;;;;;;7.07;6.47;;;24.90;46.90;;;27.36;35.52;100876.94;5054673;28;20581;-59
2023/06/19 04:32:49;;;;;;;7.47;6.87;;;24.90;47.00;;;27.36;35.34;100876.94;5054711;28;20194;-59
2023/06/19 04:35:18;;;;;;;8.23;7.43;;;24.90;47.10;;;27.38;35.50;100872.09;5055300;28;20674;-58
2023/06/19 04:37:45;;;;;;;7.50;6.90;;;24.90;47.20;;;27.35;35.60;100868.03;5051767;28;20301;-56
2023/06/19 04:40:12;;;;;;;7.40;6.80;;;24.90;47.30;;;27.32;35.38;100875.88;5037330;28;20204;-59
2023/06/19 04:42:39;;;;;;;6.97;6.47;;;24.90;47.30;;;27.34;35.25;100877.22;5054226;28;20206;-58
2023/06/19 04:45:07;;;;;;;8.37;7.57;;;24.90;47.40;;;27.40;35.37;100875.31;5054200;28;20214;-59
2023/06/19 04:47:36;;;;;;;7.20;6.60;;;24.90;47.60;;;27.42;35.35;100873.94;5053559;28;20308;-59
2023/06/19 04:50:19;;;;;;;8.37;7.57;;;24.80;47.60;;;27.44;35.17;100868.25;5054176;28;20192;-60
2023/06/19 04:52:50;;;;;;;8.17;7.47;;;24.90;47.60;;;27.41;35.29;100875.03;5054212;28;20201;-59
2023/06/19 04:55:17;;;;;;;6.93;6.43;;;24.90;47.90;;;27.40;35.33;100872.63;5054392;28;20728;-58
2023/06/19 04:57:44;;;;;;;7.67;7.00;;;24.90;47.90;;;27.43;35.47;100872.06;5050741;28;20321;-57
2023/06/19 05:00:14;;;;;;;7.23;6.73;;;24.90;47.80;;;27.44;35.45;100860.94;5034043;28;20241;-59
2023/06/19 05:02:44;;;;;;;7.73;7.03;;;24.90;48.00;;;27.46;35.66;100861.47;5052080;28;20194;-60
2023/06/19 05:05:11;;;;;;;9.23;7.07;;;24.90;48.00;;;27.40;35.88;100869.91;5053927;28;20288;-59
2023/06/19 05:07:39;;;;;;;7.23;6.73;;;24.90;48.00;;;27.37;35.89;100859.63;5051159;28;20336;-59
2023/06/19 05:10:07;;;;;;;7.93;7.27;;;24.90;48.10;;;27.37;35.50;100868.56;5034020;28;20254;-56
2023/06/19 05:12:35;;;;;;;8.23;7.13;;;24.90;48.20;;;27.42;35.63;100865.03;5046591;28;20257;-60
2023/06/19 05:15:03;;;;;;;7.77;7.17;;;24.90;48.20;;;27.45;35.88;100867.16;5053571;28;20301;-58
2023/06/19 05:17:30;;;;;;;7.27;6.67;;;24.90;48.40;;;27.52;35.50;100873.06;5053368;28;20222;-60
2023/06/19 05:19:59;;;;;;;6.63;6.10;;;24.90;48.30;;;27.58;35.49;100871.91;5033673;28;20633;-60
2023/06/19 05:22:26;;;;;;;7.60;6.93;;;24.90;48.20;;;27.62;35.60;100880.28;5033735;28;20198;-58
2023/06/19 05:24:53;;;;;;;7.93;7.23;;;25.00;48.20;;;27.61;35.49;100871.34;5033696;28;20253;-61
2023/06/19 05:27:20;;;;;;;8.20;7.43;;;25.00;48.30;;;27.63;35.35;100873.75;5033115;28;20282;-60
2023/06/19 05:29:47;;;;;;;7.00;6.47;;;25.00;48.40;;;27.65;35.77;100875.09;5051502;28;20209;-59
2023/06/19 05:32:14;;;;;;;7.77;6.97;;;25.10;48.50;;;27.69;35.35;100872.63;5053445;28;20220;-60
2023/06/19 05:34:41;;;;;;;7.33;6.73;;;25.10;48.50;;;27.72;35.70;100872.88;5053040;28;20305;-58
2023/06/19 05:37:09;;;;;;;7.17;6.47;;;25.10;48.50;;;27.76;35.60;100873.94;5052212;28;20193;-60
2023/06/19 05:39:36;;;;;;;6.87;6.27;;;25.10;48.50;;;27.83;35.43;100869.00;5036168;28;20203;-59
2023/06/19 05:42:05;;;;;;;7.27;6.67;;;25.10;48.40;;;27.89;35.40;100870.53;5050714;28;20225;-61
2023/06/19 05:44:32;;;;;;;7.23;6.63;;;25.10;48.50;;;27.93;35.32;100885.09;5052762;28;20304;-60
2023/06/19 05:46:59;;;;;;;7.10;6.50;;;25.20;48.60;;;27.97;35.42;100885.34;5052808;28;20756;-59
2023/06/19 05:49:26;;;;;;;7.57;6.87;;;25.20;48.70;;;27.94;35.38;100897.56;5052625;28;20193;-61
2023/06/19 05:51:53;;;;;;;7.80;7.00;;;25.30;48.80;;;27.91;35.25;100892.72;5052745;28;20301;-58
2023/06/19 05:54:21;;;;;;;8.30;6.50;;;25.20;48.70;;;27.89;35.84;100894.09;5052112;28;20198;-60
2023/06/19 05:56:50;;;;;;;7.73;7.03;;;25.20;48.80;;;27.78;35.71;100893.38;5046382;28;20282;-60
2023/06/19 05:59:17;;;;;;;7.67;7.00;;;25.20;48.70;;;27.69;36.25;100894.28;5046362;28;20248;-60
2023/06/19 06:01:44;;;;;;;7.93;7.27;;;25.20;48.90;;;27.62;36.01;100899.22;5042911;28;20207;-60
2023/06/19 06:04:11;;;;;;;7.57;6.77;;;25.10;49.10;;;27.59;36.19;100899.78;5041807;28;20312;-60
2023/06/19 06:06:38;;;;;;;7.00;6.50;;;25.10;49.30;;;27.61;36.33;100893.00;5042866;28;20217;-59
2023/06/19 06:09:08;;;;;;;7.40;6.80;;;25.10;49.50;;;27.67;36.28;100901.88;5040604;28;20191;-61
2023/06/19 06:11:37;;;;;;;7.80;6.93;;;25.10;49.60;;;27.75;36.29;100899.38;5041264;28;20259;-59
2023/06/19 06:14:04;;;;;;;7.57;6.97;;;25.10;49.70;;;27.83;36.07;100901.47;5052271;28;20276;-60
2023/06/19 06:16:31;;;;;;;7.57;6.97;;;25.10;49.80;;;27.92;36.01;100910.56;5052363;28;20309;-60
2023/06/19 06:18:58;;;;;;;7.63;6.90;;;25.20;50.00;;;27.97;35.75;100913.25;5051900;28;20248;-59
2023/06/19 06:21:25;;;;;;;11.03;7.67;;;25.20;50.00;;;28.02;35.83;100907.81;5051646;28;20198;-59
2023/06/19 06:23:54;;;;;;;8.50;7.60;;;25.30;50.00;;;28.02;35.98;100910.53;5051949;28;20267;-59
2023/06/19 06:26:21;;;;;;;8.40;7.70;;;25.30;49.90;;;28.04;36.10;100913.75;5052310;28;20214;-59
2023/06/19 06:28:49;;;;;;;8.13;7.43;;;25.30;49.90;;;28.07;36.26;100926.72;5039583;28;20245;-60
2023/06/19 06:31:16;;;;;;;8.73;7.93;;;25.40;50.10;;;28.04;36.23;100923.75;5032167;28;20279;-62
2023/06/19 06:33:43;;;;;;;7.40;6.80;;;25.40;50.00;;;28.14;36.28;100924.47;5032958;28;20524;-61
2023/06/19 06:36:11;;;;;;;8.30;7.50;;;25.40;50.20;;;28.28;36.03;100929.19;5041831;28;20217;-64
2023/06/19 06:38:51;;;;;;;7.77;7.17;;;25.50;50.00;;;28.35;35.44;100935.09;5032182;28;20583;-60
2023/06/19 06:41:44;;;;;;;8.47;7.67;;;25.60;49.60;;;28.35;35.75;100927.78;5038954;28;20209;-62
2023/06/19 06:44:22;;;;;;;7.33;6.70;;;25.60;49.50;;;28.43;35.60;100940.66;5042240;28;20209;-62
2023/06/19 06:46:49;;;;;;;7.47;6.87;;;25.70;49.50;;;28.53;35.56;100937.03;5045076;28;20224;-63
2023/06/19 06:49:20;;;;;;;8.13;7.47;;;25.80;49.50;;;28.60;35.59;100938.34;5020172;28;20194;-63
2023/06/19 06:51:47;;;;;;;7.90;7.20;;;25.80;49.50;;;28.65;35.36;100945.59;5017446;28;20536;-64
2023/06/19 06:54:15;;;;;;;7.20;6.57;;;25.90;49.40;;;28.61;35.79;100950.00;5036109;28;20285;-62
2023/06/19 06:56:47;;;;;;;9.93;7.03;;;25.90;49.40;;;28.64;35.34;100950.22;5041659;28;20197;-60
2023/06/19 06:59:21;;;;;;;7.83;6.97;;;26.00;49.50;;;28.62;35.70;100951.63;5028427;28;20201;-62
2023/06/19 07:01:53;;;;;;;7.57;6.87;;;26.00;49.70;;;28.62;35.63;100946.97;5042323;28;20205;-62
2023/06/19 07:04:21;;;;;;;7.87;7.17;;;26.00;49.70;;;28.65;35.82;100951.00;5044471;28;20542;-62
2023/06/19 07:06:50;;;;;;;7.80;7.10;;;26.00;49.90;;;28.66;35.72;100955.34;5054190;28;20209;-64
2023/06/19 07:09:23;;;;;;;6.90;6.17;;;26.00;49.80;;;28.69;35.87;100952.06;5031588;28;20244;-63
2023/06/19 07:11:52;;;;;;;8.17;7.27;;;26.00;49.70;;;28.74;35.79;100957.44;5032768;28;20546;-63
2023/06/19 07:14:20;;;;;;;7.40;6.70;;;26.00;50.00;;;28.80;35.75;100958.97;5031694;28;20190;-63
2023/06/19 07:16:49;;;;;;;7.87;6.37;;;26.00;50.00;;;28.92;35.96;100967.50;5054197;28;20240;-60
2023/06/19 07:19:17;;;;;;;8.80;6.40;;;26.10;50.20;;;29.03;35.68;100963.56;5055018;28;20663;-59
2023/06/19 07:21:44;;;;;;;8.93;6.67;;;26.20;50.20;;;29.08;35.73;100954.53;5055864;28;20728;-60
2023/06/19 07:24:11;;;;;;;8.17;7.47;;;26.20;50.20;;;29.14;35.60;100954.19;5055229;28;20202;-61
2023/06/19 07:26:38;;;;;;;7.77;6.93;;;26.30;50.20;;;29.22;35.64;100950.84;5055828;28;20278;-58
2023/06/19 07:29:05;;;;;;;6.97;6.37;;;26.40;50.30;;;29.31;35.69;100951.78;5045991;28;20186;-59
2023/06/19 07:31:32;;;;;;;7.27;6.57;;;26.50;50.30;;;29.55;35.39;100950.91;5036279;28;20205;-60
2023/06/19 07:33:59;;;;;;;8.17;7.37;;;26.60;50.30;;;29.83;35.02;100950.75;5034907;28;20201;-57
2023/06/19 07:36:27;;;;;;;7.20;5.30;;;26.70;50.50;;;30.08;35.16;100946.78;5035308;28;20308;-59
2023/06/19 07:38:55;;;;;;;5.23;4.83;;;26.90;50.40;;;30.38;34.42;100946.22;5043140;28;20217;-58
2023/06/19 07:41:22;;;;;;;6.53;6.00;;;27.10;50.30;;;30.59;34.62;100942.03;5055284;28;20200;-59
2023/06/19 07:43:49;;;;;;;6.27;5.77;;;27.30;50.20;;;30.60;34.79;100951.78;5054559;28;20300;-58
2023/06/19 07:46:16;;;;;;;8.73;6.13;;;27.40;49.90;;;30.57;35.21;100954.31;5055529;28;20213;-59
2023/06/19 07:48:44;;;;;;;6.53;5.60;;;27.60;49.70;;;30.58;34.50;100947.75;5048417;28;20301;-60
2023/06/19 07:51:11;;;;;;;6.13;5.53;;;27.70;49.60;;;30.62;34.47;100949.56;5035442;28;20848;-60
2023/06/19 07:53:39;;;;;;;6.43;5.50;;;27.70;49.40;;;30.61;34.54;100949.88;5034761;28;20198;-58
2023/06/19 07:56:08;;;;;;;6.47;5.83;;;27.80;49.40;;;30.58;34.96;100945.84;5035720;28;20207;-58
2023/06/19 07:58:35;;;;;;;5.87;5.37;;;27.80;49.40;;;30.60;34.99;100943.63;5035047;28;20233;-57
2023/06/19 08:01:02;;;;;;;5.67;5.27;;;27.80;49.60;;;30.64;34.84;100947.34;5040618;28;20225;-58
2023/06/19 08:03:30;;;;;;;5.90;5.40;;;27.90;49.90;;;30.69;34.66;100939.09;5054518;28;20221;-57
2023/06/19 08:05:57;;;;;;;5.33;4.93;;;27.90;49.40;;;30.83;34.50;100942.59;5054640;28;20211;-56
2023/06/19 08:08:24;;;;;;;5.67;5.27;;;28.00;49.60;;;30.93;34.95;100951.69;5053286;28;20304;-57
2023/06/19 08:10:53;;;;;;;6.37;5.43;;;28.00;50.00;;;31.00;34.19;100950.16;5054422;28;20200;-58
2023/06/19 08:13:20;;;;;;;4.97;4.50;;;28.10;49.10;;;31.15;34.48;100955.28;5054202;28;20200;-58
2023/06/19 08:15:47;;;;;;;5.73;5.23;;;28.20;49.10;;;31.38;33.73;100961.53;5054358;28;20210;-58
2023/06/19 08:18:14;;;;;;;6.07;5.47;;;28.20;49.20;;;31.61;33.32;100957.78;5049815;28;20274;-58
2023/06/19 08:20:41;;;;;;;5.50;5.00;;;28.40;49.00;;;31.69;33.70;100962.47;5034593;28;20198;-59
2023/06/19 08:23:08;;;;;;;6.63;6.10;;;28.50;48.80;;;32.02;33.46;100952.94;5033243;28;20199;-58
2023/06/19 08:25:35;;;;;;;6.43;5.80;;;28.60;48.60;;;31.90;33.39;100960.84;5034866;28;20207;-57
2023/06/19 08:28:04;;;;;;;5.70;5.20;;;28.70;48.20;;;31.95;33.10;100968.88;5035768;28;20333;-59
2023/06/19 08:30:31;;;;;;;5.27;4.73;;;28.80;47.90;;;31.98;33.25;100972.94;5054477;28;20298;-58
2023/06/19 08:32:58;;;;;;;6.37;5.87;;;28.90;47.90;;;31.75;33.89;100969.41;5053819;28;20192;-58
2023/06/19 08:35:25;;;;;;;5.70;5.30;;;28.90;47.90;;;31.70;33.62;100966.81;5054575;28;20218;-59
2023/06/19 08:37:52;;;;;;;6.60;5.97;;;28.90;47.90;;;31.85;33.91;100971.88;5053526;28;20214;-57
2023/06/19 08:40:19;;;;;;;6.07;5.57;;;28.90;48.10;;;32.08;33.45;100961.78;5054061;28;20232;-59
2023/06/19 08:42:47;;;;;;;6.43;5.93;;;28.90;48.00;;;32.29;32.79;100972.94;5053844;28;20216;-59
2023/06/19 08:45:18;;;;;;;6.67;6.07;;;29.00;48.00;;;32.43;32.86;100960.00;5052632;28;20224;-60
2023/06/19 08:47:46;;;;;;;5.53;5.10;;;29.10;47.90;;;32.39;32.53;100962.56;5051407;28;20686;-60
2023/06/19 08:50:13;;;;;;;8.67;6.23;;;29.20;47.80;;;32.39;33.42;100969.94;5033916;28;20655;-58
2023/06/19 08:52:40;;;;;;;6.10;5.50;;;29.20;47.70;;;32.43;32.70;100965.47;5033979;28;20244;-59
2023/06/19 08:55:08;;;;;;;5.50;5.00;;;29.30;47.50;;;32.88;32.60;100969.66;5033213;28;20285;-58
2023/06/19 08:57:38;;;;;;;5.50;5.10;;;29.40;47.50;;;34.04;31.21;100968.78;5040820;28;20194;-61
2023/06/19 09:00:12;;;;;;;6.67;5.60;;;29.60;47.50;;;35.16;29.48;100971.81;5033738;28;20651;-60
2023/06/19 09:02:43;;;;;;;5.50;5.10;;;30.10;46.70;;;36.39;28.01;100980.97;5043152;28;20272;-56
2023/06/19 09:05:13;;;;;;;5.60;5.10;;;30.70;45.80;;;37.61;26.44;100966.75;5051093;28;20226;-59
2023/06/19 09:07:40;;;;;;;5.63;5.13;;;31.40;44.90;;;38.87;24.34;100970.41;5051650;28;20210;-57
2023/06/19 09:10:17;;;;;;;6.45;5.85;;;32.10;42.80;;;39.78;23.25;100975.13;5053653;28;20204;-58
2023/06/19 09:12:55;;;;;;;5.32;4.82;;;32.90;40.70;;;40.36;23.31;100977.75;5036017;28;20209;-60
2023/06/19 09:15:23;;;;;;;8.35;6.05;;;33.60;39.90;;;40.80;22.04;100987.13;5050094;28;20308;-60
2023/06/19 09:18:05;;;;;;;5.43;4.93;;;34.20;38.60;;;40.57;22.91;100980.88;5035504;28;20229;-59
2023/06/19 09:20:34;;;;;;;6.82;5.38;;;34.70;37.50;;;40.29;22.78;100983.94;5033469;28;20277;-60
2023/06/19 09:23:01;;;;;;;5.25;4.75;;;34.90;36.40;;;40.16;22.45;100990.00;5033451;28;20225;-59
2023/06/19 09:25:28;;;;;;;5.05;4.65;;;35.00;35.40;;;39.67;22.35;100989.88;5031874;28;20211;-58
2023/06/19 09:27:57;;;;;;;6.53;4.55;;;34.90;34.80;;;39.40;22.74;100991.66;5033512;28;20748;-59
2023/06/19 09:30:24;;;;;;;6.15;5.68;;;34.70;34.70;;;39.03;23.39;100991.25;5033319;28;20328;-59
2023/06/19 09:32:51;;;;;;;5.00;4.60;;;34.60;35.20;;;38.90;23.49;100989.75;5032493;28;20202;-61
2023/06/19 09:35:20;;;;;;;6.03;4.30;;;34.40;35.40;;;38.96;23.76;100990.28;5040704;28;20648;-59
2023/06/19 09:37:50;;;;;;;6.90;4.65;;;34.50;35.80;;;38.85;23.77;100991.97;5052865;28;20213;-59
2023/06/19 09:40:17;;;;;;;5.57;5.05;;;34.50;36.10;;;39.09;23.44;100989.00;5051524;28;20584;-57
2023/06/19 09:42:47;;;;;;;4.38;3.97;;;34.50;35.60;;;39.64;23.05;100988.63;5038530;28;20588;-59
2023/06/19 09:45:19;;;;;;;4.68;4.28;;;34.60;36.00;;;40.44;22.75;100984.97;5038812;28;20225;-61
2023/06/19 09:47:48;;;;;;;4.75;3.95;;;34.80;35.90;;;41.31;20.89;100983.94;5053000;28;20229;-56
2023/06/19 09:50:17;;;;;;;5.18;4.78;;;35.10;34.70;;;41.50;21.35;100990.09;5052735;28;20593;-59
2023/06/19 09:52:46;;;;;;;4.07;3.78;;;35.40;34.50;;;42.12;20.67;100982.91;5053020;28;20205;-57
2023/06/19 09:55:14;;;;;;;4.05;3.40;;;35.70;34.10;;;42.60;20.07;100985.69;5052332;28;20252;-59
2023/06/19 09:57:45;;;;;;;3.88;3.38;;;36.00;33.20;;;43.02;19.83;100983.19;5052800;28;20243;-55
2023/06/19 10:00:15;;;;;;;4.40;3.30;;;36.40;33.00;;;43.33;18.85;100993.66;5052417;28;20293;-57
2023/06/19 10:02:46;;;;;;;6.57;3.75;;;36.70;32.20;;;43.43;18.51;100998.47;5052674;28;20262;-58
2023/06/19 10:05:14;;;;;;;3.28;3.08;;;37.00;31.40;;;43.60;18.76;100997.69;5051932;28;20216;-59
2023/06/19 10:07:44;;;;;;;4.55;3.40;;;37.20;31.30;;;42.98;19.22;101002.56;5052584;28;20213;-58
2023/06/19 10:10:24;;;;;;;4.50;4.20;;;37.30;30.90;;;41.58;20.02;101004.81;5052490;28;20268;-60
2023/06/19 10:12:54;;;;;;;5.60;3.33;;;37.10;30.40;;;40.29;21.29;101017.06;5052561;28;20190;-59
2023/06/19 10:15:24;;;;;;;4.55;4.00;;;36.70;30.90;;;39.13;22.95;101015.47;5039187;28;20305;-58
2023/06/19 10:17:53;;;;;;;5.15;3.28;;;36.10;31.90;;;38.19;24.36;101020.22;5032610;28;20214;-58